createdAt,value
2019-02-21T00:00:31.701Z,0
2019-02-21T00:01:31.090Z,0
2019-02-21T00:02:31.112Z,0
2019-02-21T00:03:31.642Z,0
2019-02-21T00:04:31.404Z,0
2019-02-21T00:05:31.442Z,0
2019-02-21T00:06:31.195Z,0
2019-02-21T00:07:30.940Z,0
2019-02-21T00:08:31.227Z,0
2019-02-21T00:09:31.490Z,0
2019-02-21T00:10:31.258Z,0
2019-02-21T00:11:31.268Z,0
2019-02-21T00:12:31.310Z,0
2019-02-21T00:13:31.822Z,0
2019-02-21T00:14:31.427Z,0
2019-02-21T00:15:31.613Z,0
2019-02-21T00:16:31.618Z,0
2019-02-21T00:17:31.120Z,0
2019-02-21T00:18:31.406Z,0
2019-02-21T00:19:31.421Z,0
2019-02-21T00:20:31.180Z,0
2019-02-21T00:21:31.458Z,0
2019-02-21T00:22:31.212Z,0
2019-02-21T00:23:31.492Z,0
2019-02-21T00:24:31.550Z,0
2019-02-21T00:25:31.527Z,0
2019-02-21T00:26:31.849Z,0
2019-02-21T00:27:31.848Z,0
2019-02-21T00:28:31.608Z,0
2019-02-21T00:29:31.873Z,0
2019-02-21T00:30:42.158Z,0
2019-02-21T00:31:31.649Z,0
2019-02-21T00:32:31.664Z,0
2019-02-21T00:33:31.933Z,0
2019-02-21T00:34:31.442Z,0
2019-02-21T00:35:31.718Z,0
2019-02-21T00:36:31.551Z,0
2019-02-21T00:37:32.026Z,0
2019-02-21T00:38:31.768Z,0
2019-02-21T00:39:31.524Z,0
2019-02-21T00:40:31.820Z,0
2019-02-21T00:41:32.078Z,0
2019-02-21T00:42:31.842Z,0
2019-02-21T00:43:31.603Z,0
2019-02-21T00:44:31.876Z,0
2019-02-21T00:45:31.642Z,0
2019-02-21T00:46:31.922Z,0
2019-02-21T00:47:31.944Z,0
2019-02-21T00:48:31.953Z,0
2019-02-21T00:49:31.972Z,0
2019-02-21T00:50:32.248Z,0
2019-02-21T00:51:32.282Z,0
2019-02-21T00:52:33.719Z,0
2019-02-21T00:53:32.047Z,0
2019-02-21T00:54:32.078Z,0
2019-02-21T00:55:35.169Z,0
2019-02-21T00:56:32.098Z,0
2019-02-21T00:57:32.380Z,0
2019-02-21T00:58:32.396Z,0
2019-02-21T00:59:32.672Z,0
2019-02-21T01:00:32.435Z,0
2019-02-21T01:01:32.506Z,0
2019-02-21T01:02:32.499Z,0
2019-02-21T01:03:31.984Z,0
2019-02-21T01:04:32.506Z,0
2019-02-21T01:05:32.079Z,0
2019-02-21T01:06:32.545Z,0
2019-02-21T01:07:32.045Z,0
2019-02-21T01:08:32.328Z,0
2019-02-21T01:09:32.402Z,0
2019-02-21T01:10:32.356Z,0
2019-02-21T01:11:32.375Z,0
2019-02-21T01:12:32.394Z,0
2019-02-21T01:13:32.683Z,0
2019-02-21T01:14:32.436Z,0
2019-02-21T01:15:32.718Z,0
2019-02-21T01:16:32.734Z,0
2019-02-21T01:17:32.227Z,0
2019-02-21T01:18:32.778Z,0
2019-02-21T01:19:32.778Z,0
2019-02-21T01:20:32.283Z,0
2019-02-21T01:21:32.305Z,0
2019-02-21T01:22:32.847Z,0
2019-02-21T01:23:32.347Z,0
2019-02-21T01:24:32.673Z,0
2019-02-21T01:25:32.899Z,0
2019-02-21T01:26:32.696Z,0
2019-02-21T01:27:32.956Z,0
2019-02-21T01:28:33.059Z,0
2019-02-21T01:29:32.715Z,0
2019-02-21T01:30:32.987Z,0
2019-02-21T01:31:32.492Z,0
2019-02-21T01:32:33.020Z,0
2019-02-21T01:33:33.156Z,0
2019-02-21T01:34:32.550Z,0
2019-02-21T01:35:32.821Z,0
2019-02-21T01:36:33.095Z,0
2019-02-21T01:37:32.856Z,0
2019-02-21T01:38:32.657Z,0
2019-02-21T01:39:32.891Z,0
2019-02-21T01:40:33.176Z,0
2019-02-21T01:41:32.984Z,0
2019-02-21T01:42:33.467Z,0
2019-02-21T01:43:32.968Z,0
2019-02-21T01:44:33.245Z,0
2019-02-21T01:45:33.009Z,0
2019-02-21T01:46:33.034Z,0
2019-02-21T01:47:33.303Z,0
2019-02-21T01:48:34.527Z,0
2019-02-21T01:49:33.081Z,0
2019-02-21T01:50:34.099Z,0
2019-02-21T01:51:33.381Z,0
2019-02-21T01:52:33.394Z,0
2019-02-21T01:53:32.901Z,0
2019-02-21T01:54:33.434Z,0
2019-02-21T01:55:33.450Z,0
2019-02-21T01:56:33.503Z,0
2019-02-21T01:57:32.976Z,0
2019-02-21T01:58:32.988Z,0
2019-02-21T01:59:33.586Z,0
2019-02-21T02:00:33.539Z,0
2019-02-21T02:01:33.572Z,0
2019-02-21T02:02:33.319Z,0
2019-02-21T02:03:33.340Z,0
2019-02-21T02:04:33.354Z,0
2019-02-21T02:05:33.632Z,0
2019-02-21T02:06:33.398Z,0
2019-02-21T02:07:33.667Z,0
2019-02-21T02:08:33.688Z,0
2019-02-21T02:09:34.045Z,0
2019-02-21T02:10:33.474Z,0
2019-02-21T02:11:33.481Z,0
2019-02-21T02:12:33.764Z,0
2019-02-21T02:13:33.782Z,0
2019-02-21T02:14:33.802Z,0
2019-02-21T02:15:33.911Z,0
2019-02-21T02:16:33.581Z,0
2019-02-21T02:17:33.595Z,0
2019-02-21T02:18:34.140Z,0
2019-02-21T02:19:33.888Z,0
2019-02-21T02:20:33.665Z,0
2019-02-21T02:21:33.718Z,0
2019-02-21T02:22:33.692Z,0
2019-02-21T02:23:33.966Z,0
2019-02-21T02:24:33.728Z,0
2019-02-21T02:25:33.745Z,0
2019-02-21T02:26:34.023Z,0
2019-02-21T02:27:34.042Z,0
2019-02-21T02:28:33.798Z,0
2019-02-21T02:29:33.828Z,0
2019-02-21T02:30:33.968Z,0
2019-02-21T02:31:33.859Z,0
2019-02-21T02:32:33.899Z,0
2019-02-21T02:33:34.168Z,0
2019-02-21T02:34:33.661Z,0
2019-02-21T02:35:33.962Z,0
2019-02-21T02:36:34.468Z,0
2019-02-21T02:37:33.972Z,0
2019-02-21T02:38:33.727Z,0
2019-02-21T02:39:34.027Z,0
2019-02-21T02:40:34.283Z,0
2019-02-21T02:41:34.295Z,0
2019-02-21T02:42:34.080Z,0
2019-02-21T02:43:33.898Z,0
2019-02-21T02:44:33.846Z,0
2019-02-21T02:45:34.398Z,0
2019-02-21T02:46:34.388Z,0
2019-02-21T02:47:34.182Z,0
2019-02-21T02:48:34.443Z,0
2019-02-21T02:49:34.212Z,0
2019-02-21T02:50:33.955Z,0
2019-02-21T02:51:34.487Z,0
2019-02-21T02:52:34.515Z,0
2019-02-21T02:53:34.270Z,0
2019-02-21T02:54:34.288Z,0
2019-02-21T02:55:34.570Z,0
2019-02-21T02:56:34.477Z,0
2019-02-21T02:57:34.338Z,0
2019-02-21T02:58:34.113Z,0
2019-02-21T02:59:46.838Z,0
2019-02-21T03:00:34.650Z,0
2019-02-21T03:01:41.816Z,0
2019-02-21T03:02:34.467Z,0
2019-02-21T03:03:34.442Z,0
2019-02-21T03:04:35.312Z,0
2019-02-21T03:05:34.481Z,0
2019-02-21T03:06:34.507Z,0
2019-02-21T03:07:34.515Z,0
2019-02-21T03:08:34.540Z,0
2019-02-21T03:09:34.814Z,0
2019-02-21T03:10:34.851Z,0
2019-02-21T03:11:34.858Z,0
2019-02-21T03:12:34.733Z,0
2019-02-21T03:13:34.407Z,0
2019-02-21T03:14:34.913Z,0
2019-02-21T03:15:34.690Z,0
2019-02-21T03:16:35.304Z,0
2019-02-21T03:17:35.225Z,0
2019-02-21T03:18:34.477Z,0
2019-02-21T03:19:34.737Z,0
2019-02-21T03:20:35.026Z,0
2019-02-21T03:21:34.777Z,0
2019-02-21T03:22:34.798Z,0
2019-02-21T03:23:35.374Z,0
2019-02-21T03:24:35.181Z,0
2019-02-21T03:25:35.110Z,0
2019-02-21T03:26:34.615Z,0
2019-02-21T03:27:34.885Z,0
2019-02-21T03:28:34.907Z,0
2019-02-21T03:29:35.183Z,0
2019-02-21T03:30:34.964Z,0
2019-02-21T03:31:52.592Z,0
2019-02-21T03:32:35.550Z,0
2019-02-21T03:33:35.297Z,0
2019-02-21T03:34:35.389Z,0
2019-02-21T03:35:35.356Z,0
2019-02-21T03:36:35.351Z,0
2019-02-21T03:37:35.371Z,0
2019-02-21T03:38:39.600Z,0
2019-02-21T03:39:35.360Z,0
2019-02-21T03:40:35.411Z,0
2019-02-21T03:41:35.158Z,0
2019-02-21T03:42:34.915Z,0
2019-02-21T03:43:35.306Z,0
2019-02-21T03:44:35.222Z,0
2019-02-21T03:45:35.232Z,0
2019-02-21T03:46:35.242Z,0
2019-02-21T03:47:35.267Z,0
2019-02-21T03:48:35.535Z,0
2019-02-21T03:49:35.411Z,0
2019-02-21T03:50:35.575Z,0
2019-02-21T03:51:35.594Z,0
2019-02-21T03:52:35.091Z,0
2019-02-21T03:53:35.694Z,0
2019-02-21T03:54:35.397Z,0
2019-02-21T03:55:35.407Z,0
2019-02-21T03:56:35.178Z,0
2019-02-21T03:57:35.700Z,0
2019-02-21T03:58:35.717Z,0
2019-02-21T03:59:36.019Z,0
2019-02-21T04:00:35.504Z,0
2019-02-21T04:01:35.788Z,0
2019-02-21T04:02:35.288Z,0
2019-02-21T04:03:35.809Z,0
2019-02-21T04:04:35.575Z,0
2019-02-21T04:05:35.661Z,0
2019-02-21T04:06:35.614Z,0
2019-02-21T04:07:35.630Z,0
2019-02-21T04:08:35.653Z,0
2019-02-21T04:09:35.666Z,0
2019-02-21T04:10:35.934Z,0
2019-02-21T04:11:36.238Z,0
2019-02-21T04:12:36.243Z,0
2019-02-21T04:13:36.255Z,0
2019-02-21T04:14:36.016Z,0
2019-02-21T04:15:36.045Z,0
2019-02-21T04:16:36.044Z,0
2019-02-21T04:17:35.805Z,0
2019-02-21T04:18:35.824Z,0
2019-02-21T04:19:36.107Z,0
2019-02-21T04:20:36.120Z,0
2019-02-21T04:21:35.885Z,0
2019-02-21T04:22:35.971Z,0
2019-02-21T04:23:35.912Z,0
2019-02-21T04:24:36.192Z,0
2019-02-21T04:25:35.960Z,0
2019-02-21T04:26:36.234Z,0
2019-02-21T04:27:36.253Z,0
2019-02-21T04:28:36.008Z,0
2019-02-21T04:29:36.280Z,0
2019-02-21T04:30:36.050Z,0
2019-02-21T04:31:36.343Z,0
2019-02-21T04:32:36.091Z,0
2019-02-21T04:33:38.972Z,0
2019-02-21T04:34:36.377Z,0
2019-02-21T04:35:36.663Z,0
2019-02-21T04:36:36.443Z,0
2019-02-21T04:37:36.458Z,0
2019-02-21T04:38:36.507Z,0
2019-02-21T04:39:36.235Z,0
2019-02-21T04:40:36.517Z,0
2019-02-21T04:41:36.512Z,0
2019-02-21T04:42:36.522Z,0
2019-02-21T04:43:36.286Z,0
2019-02-21T04:44:36.338Z,0
2019-02-21T04:45:36.336Z,0
2019-02-21T04:46:36.350Z,0
2019-02-21T04:47:36.356Z,0
2019-02-21T04:48:36.182Z,0
2019-02-21T04:49:36.404Z,0
2019-02-21T04:50:36.423Z,0
2019-02-21T04:51:36.706Z,0
2019-02-21T04:52:36.465Z,0
2019-02-21T04:53:36.472Z,0
2019-02-21T04:54:36.240Z,0
2019-02-21T04:55:36.768Z,0
2019-02-21T04:56:36.774Z,0
2019-02-21T04:57:36.550Z,0
2019-02-21T04:58:36.568Z,0
2019-02-21T04:59:36.868Z,0
2019-02-21T05:00:36.591Z,0
2019-02-21T05:01:36.614Z,0
2019-02-21T05:02:36.674Z,0
2019-02-21T05:03:37.015Z,0
2019-02-21T05:04:37.199Z,0
2019-02-21T05:05:36.966Z,0
2019-02-21T05:06:36.717Z,0
2019-02-21T05:07:36.984Z,0
2019-02-21T05:08:36.992Z,0
2019-02-21T05:09:37.270Z,0
2019-02-21T05:10:37.166Z,0
2019-02-21T05:11:36.540Z,0
2019-02-21T05:12:37.086Z,0
2019-02-21T05:13:38.835Z,0
2019-02-21T05:14:37.119Z,0
2019-02-21T05:15:37.379Z,0
2019-02-21T05:16:37.396Z,0
2019-02-21T05:17:36.987Z,0
2019-02-21T05:18:36.925Z,0
2019-02-21T05:19:37.196Z,0
2019-02-21T05:20:37.576Z,0
2019-02-21T05:21:36.999Z,0
2019-02-21T05:22:37.250Z,0
2019-02-21T05:23:39.070Z,0
2019-02-21T05:24:37.032Z,0
2019-02-21T05:25:37.043Z,0
2019-02-21T05:26:37.077Z,0
2019-02-21T05:27:37.471Z,0
2019-02-21T05:28:37.393Z,0
2019-02-21T05:29:37.136Z,0
2019-02-21T05:30:38.845Z,0
2019-02-21T05:31:37.164Z,0
2019-02-21T05:32:47.313Z,0
2019-02-21T05:33:37.209Z,0
2019-02-21T05:34:36.962Z,0
2019-02-21T05:35:38.151Z,0
2019-02-21T05:36:37.010Z,0
2019-02-21T05:37:37.008Z,0
2019-02-21T05:38:37.289Z,0
2019-02-21T05:39:37.588Z,0
2019-02-21T05:40:37.856Z,0
2019-02-21T05:41:37.933Z,0
2019-02-21T05:42:37.377Z,0
2019-02-21T05:43:41.792Z,0
2019-02-21T05:44:40.805Z,0
2019-02-21T05:45:37.552Z,0
2019-02-21T05:46:37.440Z,0
2019-02-21T05:47:37.190Z,0
2019-02-21T05:48:40.161Z,0
2019-02-21T05:49:37.232Z,0
2019-02-21T05:50:37.790Z,0
2019-02-21T05:51:37.264Z,0
2019-02-21T05:52:37.281Z,0
2019-02-21T05:53:37.307Z,0
2019-02-21T05:54:37.845Z,0
2019-02-21T05:55:37.350Z,0
2019-02-21T05:56:37.611Z,0
2019-02-21T05:57:37.893Z,0
2019-02-21T05:58:37.908Z,0
2019-02-21T05:59:37.679Z,0
2019-02-21T06:00:39.150Z,0
2019-02-21T06:01:38.252Z,0
2019-02-21T06:02:37.728Z,0
2019-02-21T06:03:40.632Z,0
2019-02-21T06:04:38.027Z,0
2019-02-21T06:05:37.778Z,0
2019-02-21T06:06:37.802Z,4
2019-02-21T06:07:38.328Z,4
2019-02-21T06:08:38.355Z,0
2019-02-21T06:09:37.852Z,4
2019-02-21T06:10:38.133Z,8
2019-02-21T06:11:39.767Z,4
2019-02-21T06:12:40.503Z,4
2019-02-21T06:13:37.925Z,8
2019-02-21T06:14:37.730Z,8
2019-02-21T06:15:38.229Z,12
2019-02-21T06:16:40.206Z,12
2019-02-21T06:17:38.917Z,12
2019-02-21T06:18:38.021Z,16
2019-02-21T06:19:38.040Z,20
2019-02-21T06:20:40.426Z,20
2019-02-21T06:21:38.087Z,24
2019-02-21T06:22:38.085Z,28
2019-02-21T06:23:39.423Z,32
2019-02-21T06:24:38.128Z,36
2019-02-21T06:25:37.906Z,40
2019-02-21T06:26:39.492Z,40
2019-02-21T06:27:40.582Z,40
2019-02-21T06:28:38.474Z,40
2019-02-21T06:29:41.011Z,40
2019-02-21T06:30:38.495Z,44
2019-02-21T06:31:38.524Z,44
2019-02-21T06:32:40.612Z,48
2019-02-21T06:33:38.298Z,56
2019-02-21T06:34:38.319Z,60
2019-02-21T06:35:38.342Z,64
2019-02-21T06:36:38.362Z,64
2019-02-21T06:37:40.367Z,68
2019-02-21T06:38:40.568Z,76
2019-02-21T06:39:38.938Z,84
2019-02-21T06:40:41.160Z,80
2019-02-21T06:41:38.463Z,84
2019-02-21T06:42:38.716Z,88
2019-02-21T06:43:38.736Z,88
2019-02-21T06:44:40.540Z,96
2019-02-21T06:45:38.521Z,104
2019-02-21T06:46:38.539Z,112
2019-02-21T06:47:38.592Z,104
2019-02-21T06:48:42.166Z,116
2019-02-21T06:49:39.741Z,128
2019-02-21T06:50:38.867Z,140
2019-02-21T06:51:38.879Z,140
2019-02-21T06:52:40.550Z,160
2019-02-21T06:53:38.660Z,184
2019-02-21T06:54:38.417Z,192
2019-02-21T06:55:38.696Z,204
2019-02-21T06:56:38.973Z,228
2019-02-21T06:57:38.727Z,236
2019-02-21T06:58:38.767Z,240
2019-02-21T06:59:49.891Z,216
2019-02-21T07:00:38.787Z,220
2019-02-21T07:01:39.076Z,244
2019-02-21T07:02:38.822Z,248
2019-02-21T07:03:38.905Z,252
2019-02-21T07:04:40.442Z,240
2019-02-21T07:05:41.334Z,248
2019-02-21T07:06:41.702Z,264
2019-02-21T07:07:38.937Z,292
2019-02-21T07:08:40.073Z,308
2019-02-21T07:09:39.211Z,328
2019-02-21T07:10:39.234Z,356
2019-02-21T07:11:38.752Z,364
2019-02-21T07:12:39.008Z,376
2019-02-21T07:13:38.821Z,396
2019-02-21T07:14:41.513Z,396
2019-02-21T07:15:39.324Z,384
2019-02-21T07:16:39.641Z,380
2019-02-21T07:17:48.442Z,384
2019-02-21T07:18:40.772Z,408
2019-02-21T07:19:39.205Z,424
2019-02-21T07:20:39.764Z,440
2019-02-21T07:21:41.273Z,472
2019-02-21T07:22:39.711Z,500
2019-02-21T07:23:50.073Z,548
2019-02-21T07:24:40.720Z,572
2019-02-21T07:25:39.726Z,608
2019-02-21T07:26:39.795Z,644
2019-02-21T07:27:39.305Z,676
2019-02-21T07:28:41.540Z,704
2019-02-21T07:29:42.483Z,712
2019-02-21T07:30:39.868Z,728
2019-02-21T07:31:39.808Z,756
2019-02-21T07:32:39.636Z,828
2019-02-21T07:33:39.654Z,844
2019-02-21T07:34:39.437Z,824
2019-02-21T07:35:39.450Z,812
2019-02-21T07:36:39.725Z,828
2019-02-21T07:37:42.159Z,844
2019-02-21T07:38:39.526Z,904
2019-02-21T07:39:42.853Z,928
2019-02-21T07:40:39.279Z,912
2019-02-21T07:41:41.517Z,920
2019-02-21T07:42:39.563Z,924
2019-02-21T07:43:39.856Z,920
2019-02-21T07:44:40.115Z,924
2019-02-21T07:45:41.251Z,940
2019-02-21T07:46:39.382Z,952
2019-02-21T07:47:39.924Z,952
2019-02-21T07:48:41.120Z,936
2019-02-21T07:49:39.506Z,944
2019-02-21T07:50:39.973Z,996
2019-02-21T07:51:41.455Z,1228
2019-02-21T07:52:39.491Z,1272
2019-02-21T07:53:39.768Z,1332
2019-02-21T07:54:39.796Z,1404
2019-02-21T07:55:39.808Z,1400
2019-02-21T07:56:48.766Z,1336
2019-02-21T07:57:39.842Z,1416
2019-02-21T07:58:42.092Z,1508
2019-02-21T07:59:40.398Z,1616
2019-02-21T08:00:39.904Z,1680
2019-02-21T08:01:39.918Z,1668
2019-02-21T08:02:40.287Z,1652
2019-02-21T08:03:53.148Z,1652
2019-02-21T08:04:41.724Z,1664
2019-02-21T08:05:39.989Z,1652
2019-02-21T08:06:39.755Z,1664
2019-02-21T08:07:40.057Z,1684
2019-02-21T08:08:40.341Z,1704
2019-02-21T08:09:41.625Z,1708
2019-02-21T08:10:41.092Z,1716
2019-02-21T08:11:39.847Z,1708
2019-02-21T08:12:43.018Z,1584
2019-02-21T08:13:40.764Z,1592
2019-02-21T08:14:40.217Z,1384
2019-02-21T08:15:40.446Z,1344
2019-02-21T08:16:40.207Z,1504
2019-02-21T08:17:40.736Z,1528
2019-02-21T08:18:40.496Z,1480
2019-02-21T08:19:40.005Z,1432
2019-02-21T08:20:47.048Z,1288
2019-02-21T08:21:43.314Z,1168
2019-02-21T08:22:40.315Z,1172
2019-02-21T08:23:49.918Z,1240
2019-02-21T08:24:40.678Z,1360
2019-02-21T08:25:40.117Z,1492
2019-02-21T08:26:40.642Z,1584
2019-02-21T08:27:44.684Z,1612
2019-02-21T08:28:40.686Z,1620
2019-02-21T08:29:40.183Z,1616
2019-02-21T08:30:40.466Z,1584
2019-02-21T08:31:40.742Z,1448
2019-02-21T08:32:40.496Z,1256
2019-02-21T08:33:40.263Z,1076
2019-02-21T08:34:40.277Z,1040
2019-02-21T08:35:40.823Z,952
2019-02-21T08:36:40.586Z,944
2019-02-21T08:37:42.791Z,984
2019-02-21T08:38:40.611Z,920
2019-02-21T08:39:40.892Z,892
2019-02-21T08:40:40.387Z,888
2019-02-21T08:41:40.669Z,880
2019-02-21T08:42:40.952Z,864
2019-02-21T08:43:42.216Z,868
2019-02-21T08:44:40.731Z,860
2019-02-21T08:45:40.749Z,864
2019-02-21T08:46:40.757Z,904
2019-02-21T08:47:40.927Z,1060
2019-02-21T08:48:42.789Z,968
2019-02-21T08:49:40.821Z,888
2019-02-21T08:50:40.836Z,908
2019-02-21T08:51:41.115Z,868
2019-02-21T08:52:41.133Z,876
2019-02-21T08:53:40.635Z,892
2019-02-21T08:54:41.170Z,952
2019-02-21T08:55:42.920Z,972
2019-02-21T08:56:41.200Z,984
2019-02-21T08:57:40.704Z,1132
2019-02-21T08:58:40.729Z,1308
2019-02-21T08:59:42.318Z,1452
2019-02-21T09:00:41.034Z,1496
2019-02-21T09:01:41.043Z,1492
2019-02-21T09:02:42.833Z,1512
2019-02-21T09:03:41.337Z,1540
2019-02-21T09:04:40.829Z,1600
2019-02-21T09:05:41.373Z,1648
2019-02-21T09:06:41.140Z,1684
2019-02-21T09:07:41.153Z,1744
2019-02-21T09:08:44.181Z,1808
2019-02-21T09:09:41.459Z,1900
2019-02-21T09:10:41.208Z,2060
2019-02-21T09:11:41.318Z,2240
2019-02-21T09:12:41.239Z,2420
2019-02-21T09:13:43.973Z,2664
2019-02-21T09:14:41.282Z,2768
2019-02-21T09:15:41.301Z,2772
2019-02-21T09:16:41.579Z,2696
2019-02-21T09:17:41.338Z,2624
2019-02-21T09:18:41.099Z,2596
2019-02-21T09:19:43.327Z,2672
2019-02-21T09:20:41.410Z,2828
2019-02-21T09:21:41.414Z,3000
2019-02-21T09:22:41.714Z,3268
2019-02-21T09:23:41.959Z,3392
2019-02-21T09:24:47.715Z,3592
2019-02-21T09:25:41.496Z,3356
2019-02-21T09:26:41.288Z,3324
2019-02-21T09:27:41.783Z,3256
2019-02-21T09:28:41.436Z,3124
2019-02-21T09:29:41.560Z,2960
2019-02-21T09:30:41.583Z,2772
2019-02-21T09:31:41.596Z,2552
2019-02-21T09:32:44.110Z,2360
2019-02-21T09:33:46.014Z,2248
2019-02-21T09:34:41.924Z,2136
2019-02-21T09:35:41.413Z,2000
2019-02-21T09:36:41.689Z,1872
2019-02-21T09:37:42.235Z,1824
2019-02-21T09:38:41.733Z,1896
2019-02-21T09:39:41.500Z,2044
2019-02-21T09:40:42.708Z,2208
2019-02-21T09:41:41.793Z,2324
2019-02-21T09:42:42.065Z,2360
2019-02-21T09:43:41.577Z,2244
2019-02-21T09:44:42.933Z,1908
2019-02-21T09:45:44.368Z,1692
2019-02-21T09:46:42.840Z,1676
2019-02-21T09:47:41.907Z,1736
2019-02-21T09:48:42.182Z,1764
2019-02-21T09:49:41.938Z,1700
2019-02-21T09:50:42.219Z,1584
2019-02-21T09:51:43.394Z,1480
2019-02-21T09:52:41.992Z,1440
2019-02-21T09:53:42.640Z,1468
2019-02-21T09:54:42.045Z,1592
2019-02-21T09:55:42.069Z,1772
2019-02-21T09:56:52.261Z,1948
2019-02-21T09:57:41.847Z,2256
2019-02-21T09:58:41.870Z,2700
2019-02-21T09:59:42.645Z,3124
2019-02-21T10:00:43.076Z,3388
2019-02-21T10:01:41.908Z,3756
2019-02-21T10:02:44.574Z,3904
2019-02-21T10:03:44.084Z,3760
2019-02-21T10:04:42.010Z,3788
2019-02-21T10:05:41.987Z,3948
2019-02-21T10:06:42.807Z,4068
2019-02-21T10:07:43.913Z,4108
2019-02-21T10:08:42.350Z,4080
2019-02-21T10:09:42.317Z,3920
2019-02-21T10:10:42.338Z,3708
2019-02-21T10:11:42.359Z,3512
2019-02-21T10:12:42.638Z,3388
2019-02-21T10:13:42.410Z,3300
2019-02-21T10:14:42.409Z,3236
2019-02-21T10:15:42.694Z,3276
2019-02-21T10:16:42.972Z,3348
2019-02-21T10:17:43.113Z,3328
2019-02-21T10:18:42.756Z,3196
2019-02-21T10:19:42.516Z,3056
2019-02-21T10:20:42.552Z,2924
2019-02-21T10:21:42.544Z,2776
2019-02-21T10:22:42.569Z,2688
2019-02-21T10:23:44.675Z,2620
2019-02-21T10:24:42.868Z,2568
2019-02-21T10:25:42.625Z,2492
2019-02-21T10:26:42.646Z,2428
2019-02-21T10:27:42.683Z,2456
2019-02-21T10:28:45.020Z,2568
2019-02-21T10:29:42.460Z,2728
2019-02-21T10:30:43.224Z,2924
2019-02-21T10:31:42.746Z,3200
2019-02-21T10:32:42.758Z,3468
2019-02-21T10:33:52.966Z,3596
2019-02-21T10:34:49.470Z,3516
2019-02-21T10:35:43.075Z,3372
2019-02-21T10:36:42.833Z,3156
2019-02-21T10:37:43.116Z,2860
2019-02-21T10:38:42.872Z,2672
2019-02-21T10:39:42.947Z,2608
2019-02-21T10:40:43.172Z,2544
2019-02-21T10:41:42.700Z,2408
2019-02-21T10:42:42.958Z,2236
2019-02-21T10:43:42.713Z,2024
2019-02-21T10:44:42.989Z,1888
2019-02-21T10:45:54.402Z,1988
2019-02-21T10:46:43.063Z,2236
2019-02-21T10:47:43.305Z,2392
2019-02-21T10:48:43.064Z,2472
2019-02-21T10:49:43.343Z,2496
2019-02-21T10:50:43.356Z,2780
2019-02-21T10:51:43.384Z,3232
2019-02-21T10:52:46.198Z,2764
2019-02-21T10:53:43.161Z,2216
2019-02-21T10:54:43.436Z,1896
2019-02-21T10:55:42.940Z,1580
2019-02-21T10:56:43.221Z,1400
2019-02-21T10:57:45.416Z,1372
2019-02-21T10:58:43.513Z,1356
2019-02-21T10:59:53.408Z,1652
2019-02-21T11:00:43.831Z,1816
2019-02-21T11:01:43.830Z,2132
2019-02-21T11:02:43.585Z,2296
2019-02-21T11:03:43.358Z,2224
2019-02-21T11:04:54.301Z,2412
2019-02-21T11:05:43.130Z,2532
2019-02-21T11:06:43.409Z,2672
2019-02-21T11:07:43.176Z,2920
2019-02-21T11:08:43.710Z,3144
2019-02-21T11:09:43.738Z,3120
2019-02-21T11:10:43.487Z,2948
2019-02-21T11:11:43.761Z,3004
2019-02-21T11:12:43.786Z,2984
2019-02-21T11:13:43.556Z,3092
2019-02-21T11:14:54.207Z,3536
2019-02-21T11:15:46.688Z,3672
2019-02-21T11:16:43.602Z,3244
2019-02-21T11:17:44.136Z,3468
2019-02-21T11:18:43.647Z,3548
2019-02-21T11:19:43.923Z,4432
2019-02-21T11:20:44.200Z,4520
2019-02-21T11:21:43.971Z,4340
2019-02-21T11:22:43.467Z,4028
2019-02-21T11:23:43.749Z,3932
2019-02-21T11:24:43.757Z,4120
2019-02-21T11:25:43.777Z,4164
2019-02-21T11:26:44.053Z,2652
2019-02-21T11:27:44.072Z,3056
2019-02-21T11:28:43.948Z,3296
2019-02-21T11:29:43.892Z,3340
2019-02-21T11:30:43.621Z,3332
2019-02-21T11:31:43.896Z,3776
2019-02-21T11:32:43.918Z,3668
2019-02-21T11:33:44.214Z,3672
2019-02-21T11:34:44.958Z,3648
2019-02-21T11:35:44.490Z,3580
2019-02-21T11:36:44.252Z,3464
2019-02-21T11:37:51.955Z,3284
2019-02-21T11:38:44.288Z,3160
2019-02-21T11:39:44.125Z,2900
2019-02-21T11:40:44.089Z,2740
2019-02-21T11:41:44.439Z,2468
2019-02-21T11:42:44.198Z,2480
2019-02-21T11:43:44.394Z,2728
2019-02-21T11:44:44.405Z,2772
2019-02-21T11:45:57.397Z,3220
2019-02-21T11:46:43.925Z,3496
2019-02-21T11:47:44.493Z,3880
2019-02-21T11:48:44.223Z,4084
2019-02-21T11:49:44.862Z,4072
2019-02-21T11:50:44.259Z,3996
2019-02-21T11:51:44.541Z,4024
2019-02-21T11:52:44.302Z,3804
2019-02-21T11:53:45.007Z,3720
2019-02-21T11:54:44.344Z,3672
2019-02-21T11:55:44.111Z,3648
2019-02-21T11:56:44.640Z,3560
2019-02-21T11:57:44.398Z,3360
2019-02-21T11:58:44.161Z,3196
2019-02-21T11:59:44.451Z,3124
2019-02-21T12:00:45.040Z,3296
2019-02-21T12:01:46.755Z,3340
2019-02-21T12:02:46.103Z,3424
2019-02-21T12:03:44.543Z,3712
2019-02-21T12:04:44.794Z,3692
2019-02-21T12:05:44.299Z,3852
2019-02-21T12:06:47.575Z,4324
2019-02-21T12:07:44.622Z,4624
2019-02-21T12:08:44.351Z,4284
2019-02-21T12:09:44.633Z,4068
2019-02-21T12:10:44.396Z,3968
2019-02-21T12:11:44.773Z,4020
2019-02-21T12:12:44.687Z,4060
2019-02-21T12:13:45.108Z,4072
2019-02-21T12:14:45.014Z,4072
2019-02-21T12:15:44.747Z,3852
2019-02-21T12:16:44.769Z,3888
2019-02-21T12:17:47.366Z,3804
2019-02-21T12:18:44.554Z,3972
2019-02-21T12:19:44.574Z,4008
2019-02-21T12:20:45.115Z,3916
2019-02-21T12:21:44.870Z,3764
2019-02-21T12:22:44.892Z,3512
2019-02-21T12:23:44.907Z,3340
2019-02-21T12:24:44.931Z,3436
2019-02-21T12:25:45.201Z,3964
2019-02-21T12:26:45.225Z,4532
2019-02-21T12:27:44.726Z,4728
2019-02-21T12:28:45.265Z,4624
2019-02-21T12:29:44.762Z,4256
2019-02-21T12:30:45.043Z,3956
2019-02-21T12:31:45.323Z,3968
2019-02-21T12:32:45.349Z,3896
2019-02-21T12:33:45.104Z,3936
2019-02-21T12:34:45.128Z,4024
2019-02-21T12:35:45.153Z,3936
2019-02-21T12:36:45.175Z,3984
2019-02-21T12:37:45.204Z,4228
2019-02-21T12:38:45.459Z,4104
2019-02-21T12:39:45.492Z,3936
2019-02-21T12:40:45.497Z,3736
2019-02-21T12:41:45.262Z,3500
2019-02-21T12:42:45.278Z,3332
2019-02-21T12:43:45.040Z,3264
2019-02-21T12:44:47.751Z,3544
2019-02-21T12:45:45.610Z,3692
2019-02-21T12:46:47.864Z,4032
2019-02-21T12:47:58.608Z,3892
2019-02-21T12:48:45.914Z,3492
2019-02-21T12:49:45.692Z,3540
2019-02-21T12:50:51.516Z,3608
2019-02-21T12:51:45.978Z,3432
2019-02-21T12:52:45.484Z,3120
2019-02-21T12:53:45.502Z,2896
2019-02-21T12:54:45.529Z,2912
2019-02-21T12:55:45.549Z,3236
2019-02-21T12:56:45.810Z,3456
2019-02-21T12:57:45.585Z,3492
2019-02-21T12:58:47.792Z,3352
2019-02-21T12:59:45.364Z,3356
2019-02-21T13:00:45.899Z,3356
2019-02-21T13:01:46.288Z,3320
2019-02-21T13:02:45.417Z,3096
2019-02-21T13:03:45.697Z,2852
2019-02-21T13:04:45.463Z,2856
2019-02-21T13:05:49.483Z,2848
2019-02-21T13:06:45.760Z,2912
2019-02-21T13:07:45.791Z,2972
2019-02-21T13:08:46.058Z,3196
2019-02-21T13:09:45.890Z,3364
2019-02-21T13:10:45.841Z,3380
2019-02-21T13:11:45.886Z,3304
2019-02-21T13:12:45.883Z,3452
2019-02-21T13:13:46.153Z,3132
2019-02-21T13:14:46.178Z,2824
2019-02-21T13:15:45.947Z,2516
2019-02-21T13:16:46.211Z,2612
2019-02-21T13:17:46.256Z,3120
2019-02-21T13:18:45.748Z,4016
2019-02-21T13:19:46.534Z,3524
2019-02-21T13:20:46.044Z,2864
2019-02-21T13:21:45.793Z,2952
2019-02-21T13:22:46.612Z,2508
2019-02-21T13:23:47.269Z,2272
2019-02-21T13:24:46.110Z,2056
2019-02-21T13:25:46.131Z,2060
2019-02-21T13:26:45.895Z,2108
2019-02-21T13:27:46.428Z,1828
2019-02-21T13:28:46.452Z,1900
2019-02-21T13:29:45.954Z,1708
2019-02-21T13:30:46.531Z,1460
2019-02-21T13:31:46.254Z,1840
2019-02-21T13:32:46.570Z,1888
2019-02-21T13:33:46.305Z,1832
2019-02-21T13:34:46.057Z,1972
2019-02-21T13:35:57.310Z,2012
2019-02-21T13:36:46.367Z,2016
2019-02-21T13:37:46.393Z,1964
2019-02-21T13:38:46.677Z,1836
2019-02-21T13:39:46.934Z,1744
2019-02-21T13:40:49.485Z,1868
2019-02-21T13:41:46.708Z,1868
2019-02-21T13:42:46.608Z,1760
2019-02-21T13:43:46.508Z,1764
2019-02-21T13:44:46.517Z,1788
2019-02-21T13:45:46.272Z,2004
2019-02-21T13:46:48.225Z,2272
2019-02-21T13:47:46.341Z,2240
2019-02-21T13:48:46.593Z,1920
2019-02-21T13:49:46.357Z,1972
2019-02-21T13:50:46.627Z,2008
2019-02-21T13:51:46.648Z,2000
2019-02-21T13:52:46.410Z,1880
2019-02-21T13:53:46.943Z,1796
2019-02-21T13:54:46.453Z,1756
2019-02-21T13:55:46.721Z,1916
2019-02-21T13:56:47.005Z,2068
2019-02-21T13:57:46.765Z,2136
2019-02-21T13:58:46.528Z,2160
2019-02-21T13:59:46.857Z,2140
2019-02-21T14:00:46.716Z,2220